sensor_id;sensor_type;location;lat;lon;timestamp;temperature;humidity
7204;DHT22;3643;52.460;13.322;2023-07-13T00:01:14;18.20;99.90
7204;DHT22;3643;52.460;13.322;2023-07-13T00:03:43;18.20;99.90
7204;DHT22;3643;52.460;13.322;2023-07-13T00:06:12;18.10;99.90
7204;DHT22;3643;52.460;13.322;2023-07-13T00:08:40;18.10;99.90
7204;DHT22;3643;52.460;13.322;2023-07-13T00:11:08;18.10;99.90
7204;DHT22;3643;52.460;13.322;2023-07-13T00:13:38;18.00;99.90
7204;DHT22;3643;52.460;13.322;2023-07-13T00:16:07;18.10;99.90
7204;DHT22;3643;52.460;13.322;2023-07-13T00:18:36;18.10;99.90
7204;DHT22;3643;52.460;13.322;2023-07-13T00:21:07;18.00;99.90
7204;DHT22;3643;52.460;13.322;2023-07-13T00:23:38;18.00;99.90
7204;DHT22;3643;52.460;13.322;2023-07-13T00:26:08;18.00;99.90
7204;DHT22;3643;52.460;13.322;2023-07-13T00:28:38;18.00;99.90
7204;DHT22;3643;52.460;13.322;2023-07-13T00:31:10;18.00;99.90
7204;DHT22;3643;52.460;13.322;2023-07-13T00:33:42;18.00;99.90
7204;DHT22;3643;52.460;13.322;2023-07-13T00:36:12;18.00;99.90
7204;DHT22;3643;52.460;13.322;2023-07-13T00:38:41;18.00;99.90
7204;DHT22;3643;52.460;13.322;2023-07-13T00:41:10;18.00;99.90
7204;DHT22;3643;52.460;13.322;2023-07-13T00:43:39;17.90;99.90
7204;DHT22;3643;52.460;13.322;2023-07-13T00:46:21;17.90;99.90
7204;DHT22;3643;52.460;13.322;2023-07-13T00:48:51;17.80;99.90
7204;DHT22;3643;52.460;13.322;2023-07-13T00:51:30;17.90;99.90
7204;DHT22;3643;52.460;13.322;2023-07-13T00:54:03;17.80;99.90
7204;DHT22;3643;52.460;13.322;2023-07-13T00:56:33;17.80;99.90
7204;DHT22;3643;52.460;13.322;2023-07-13T00:59:03;17.70;99.90
7204;DHT22;3643;52.460;13.322;2023-07-13T01:01:32;17.60;99.90
7204;DHT22;3643;52.460;13.322;2023-07-13T01:04:01;17.60;99.90
7204;DHT22;3643;52.460;13.322;2023-07-13T01:06:31;17.50;99.90
7204;DHT22;3643;52.460;13.322;2023-07-13T01:08:59;17.50;99.90
7204;DHT22;3643;52.460;13.322;2023-07-13T01:11:28;17.50;99.90
7204;DHT22;3643;52.460;13.322;2023-07-13T01:13:56;17.40;99.90
7204;DHT22;3643;52.460;13.322;2023-07-13T01:16:27;17.40;99.90
7204;DHT22;3643;52.460;13.322;2023-07-13T01:18:56;17.30;99.90
7204;DHT22;3643;52.460;13.322;2023-07-13T01:21:29;17.30;99.90
7204;DHT22;3643;52.460;13.322;2023-07-13T01:23:58;17.30;99.90
7204;DHT22;3643;52.460;13.322;2023-07-13T01:26:27;17.40;99.90
7204;DHT22;3643;52.460;13.322;2023-07-13T01:28:55;17.40;99.90
7204;DHT22;3643;52.460;13.322;2023-07-13T01:31:24;17.50;99.90
7204;DHT22;3643;52.460;13.322;2023-07-13T01:33:53;17.40;99.90
7204;DHT22;3643;52.460;13.322;2023-07-13T01:36:22;17.40;99.90
7204;DHT22;3643;52.460;13.322;2023-07-13T01:38:51;17.40;99.90
7204;DHT22;3643;52.460;13.322;2023-07-13T01:41:20;17.30;99.90
7204;DHT22;3643;52.460;13.322;2023-07-13T01:43:48;17.30;99.90
7204;DHT22;3643;52.460;13.322;2023-07-13T01:46:17;17.20;99.90
7204;DHT22;3643;52.460;13.322;2023-07-13T01:48:50;17.20;99.90
7204;DHT22;3643;52.460;13.322;2023-07-13T01:51:19;17.20;99.90
7204;DHT22;3643;52.460;13.322;2023-07-13T01:53:48;17.20;99.90
7204;DHT22;3643;52.460;13.322;2023-07-13T01:56:18;17.10;99.90
7204;DHT22;3643;52.460;13.322;2023-07-13T01:58:46;17.10;99.90
7204;DHT22;3643;52.460;13.322;2023-07-13T02:01:15;17.20;99.90
7204;DHT22;3643;52.460;13.322;2023-07-13T02:03:44;17.20;99.90
7204;DHT22;3643;52.460;13.322;2023-07-13T02:06:13;17.10;99.90
7204;DHT22;3643;52.460;13.322;2023-07-13T02:08:42;17.00;99.90
7204;DHT22;3643;52.460;13.322;2023-07-13T02:11:11;17.00;99.90
7204;DHT22;3643;52.460;13.322;2023-07-13T02:13:41;17.00;99.90
7204;DHT22;3643;52.460;13.322;2023-07-13T02:16:09;16.90;99.90
7204;DHT22;3643;52.460;13.322;2023-07-13T02:18:38;16.90;99.90
7204;DHT22;3643;52.460;13.322;2023-07-13T02:21:06;16.90;99.90
7204;DHT22;3643;52.460;13.322;2023-07-13T02:23:35;15.80;99.90
7204;DHT22;3643;52.460;13.322;2023-07-13T02:26:04;16.90;99.90
7204;DHT22;3643;52.460;13.322;2023-07-13T02:28:33;16.90;99.90
7204;DHT22;3643;52.460;13.322;2023-07-13T02:31:08;16.90;99.90
7204;DHT22;3643;52.460;13.322;2023-07-13T02:33:36;16.90;99.90
7204;DHT22;3643;52.460;13.322;2023-07-13T02:36:05;16.80;99.90
7204;DHT22;3643;52.460;13.322;2023-07-13T02:38:35;16.80;99.90
7204;DHT22;3643;52.460;13.322;2023-07-13T02:41:04;16.80;99.90
7204;DHT22;3643;52.460;13.322;2023-07-13T02:43:32;16.80;99.90
7204;DHT22;3643;52.460;13.322;2023-07-13T02:46:02;16.80;99.90
7204;DHT22;3643;52.460;13.322;2023-07-13T02:48:38;16.80;99.90
7204;DHT22;3643;52.460;13.322;2023-07-13T02:51:07;16.80;99.90
7204;DHT22;3643;52.460;13.322;2023-07-13T02:53:35;16.80;99.90
7204;DHT22;3643;52.460;13.322;2023-07-13T02:56:04;16.80;99.90
7204;DHT22;3643;52.460;13.322;2023-07-13T02:58:32;16.70;99.90
7204;DHT22;3643;52.460;13.322;2023-07-13T03:01:07;16.70;99.90
7204;DHT22;3643;52.460;13.322;2023-07-13T03:03:38;16.70;99.90
7204;DHT22;3643;52.460;13.322;2023-07-13T03:06:06;16.70;99.90
7204;DHT22;3643;52.460;13.322;2023-07-13T03:08:36;16.70;99.90
7204;DHT22;3643;52.460;13.322;2023-07-13T03:11:07;16.70;99.90
7204;DHT22;3643;52.460;13.322;2023-07-13T03:13:36;16.70;99.90
7204;DHT22;3643;52.460;13.322;2023-07-13T03:16:05;16.70;99.90
7204;DHT22;3643;52.460;13.322;2023-07-13T03:18:35;16.70;99.90
7204;DHT22;3643;52.460;13.322;2023-07-13T03:21:05;16.80;99.90
7204;DHT22;3643;52.460;13.322;2023-07-13T03:23:34;16.80;99.90
7204;DHT22;3643;52.460;13.322;2023-07-13T03:26:04;16.80;99.90
7204;DHT22;3643;52.460;13.322;2023-07-13T03:28:34;16.90;99.90
7204;DHT22;3643;52.460;13.322;2023-07-13T03:31:04;17.00;99.90
7204;DHT22;3643;52.460;13.322;2023-07-13T03:33:33;17.00;99.90
7204;DHT22;3643;52.460;13.322;2023-07-13T03:36:04;17.00;99.90
7204;DHT22;3643;52.460;13.322;2023-07-13T03:38:33;17.20;99.90
7204;DHT22;3643;52.460;13.322;2023-07-13T03:41:01;17.20;99.90
7204;DHT22;3643;52.460;13.322;2023-07-13T03:43:29;17.30;99.90
7204;DHT22;3643;52.460;13.322;2023-07-13T03:45:58;18.10;99.90
7204;DHT22;3643;52.460;13.322;2023-07-13T03:48:26;17.50;99.90
7204;DHT22;3643;52.460;13.322;2023-07-13T03:50:55;17.50;99.90
7204;DHT22;3643;52.460;13.322;2023-07-13T03:53:24;17.60;99.90
7204;DHT22;3643;52.460;13.322;2023-07-13T03:55:53;17.60;99.90
7204;DHT22;3643;52.460;13.322;2023-07-13T03:58:28;17.60;99.90
7204;DHT22;3643;52.460;13.322;2023-07-13T04:00:58;17.60;99.90
7204;DHT22;3643;52.460;13.322;2023-07-13T04:03:27;17.60;99.90
7204;DHT22;3643;52.460;13.322;2023-07-13T04:05:55;17.70;99.90
7204;DHT22;3643;52.460;13.322;2023-07-13T04:08:28;17.70;99.90
7204;DHT22;3643;52.460;13.322;2023-07-13T04:10:57;17.70;99.90
7204;DHT22;3643;52.460;13.322;2023-07-13T04:13:26;17.80;99.90
7204;DHT22;3643;52.460;13.322;2023-07-13T04:15:55;17.80;99.90
7204;DHT22;3643;52.460;13.322;2023-07-13T04:18:23;17.80;99.90
7204;DHT22;3643;52.460;13.322;2023-07-13T04:20:51;17.90;99.90
7204;DHT22;3643;52.460;13.322;2023-07-13T04:23:19;17.90;99.90
7204;DHT22;3643;52.460;13.322;2023-07-13T04:25:51;17.90;99.90
7204;DHT22;3643;52.460;13.322;2023-07-13T04:28:22;17.90;99.90
7204;DHT22;3643;52.460;13.322;2023-07-13T04:30:52;17.90;99.90
7204;DHT22;3643;52.460;13.322;2023-07-13T04:33:21;17.90;99.90
7204;DHT22;3643;52.460;13.322;2023-07-13T04:35:50;18.00;99.90
7204;DHT22;3643;52.460;13.322;2023-07-13T04:38:24;18.10;99.90
7204;DHT22;3643;52.460;13.322;2023-07-13T04:40:57;18.10;99.90
7204;DHT22;3643;52.460;13.322;2023-07-13T04:43:26;18.20;99.90
7204;DHT22;3643;52.460;13.322;2023-07-13T04:45:55;18.30;99.90
7204;DHT22;3643;52.460;13.322;2023-07-13T04:48:23;18.40;99.90
7204;DHT22;3643;52.460;13.322;2023-07-13T04:50:56;18.40;99.90
7204;DHT22;3643;52.460;13.322;2023-07-13T04:53:25;18.50;99.90
7204;DHT22;3643;52.460;13.322;2023-07-13T04:55:53;18.60;99.90
7204;DHT22;3643;52.460;13.322;2023-07-13T04:58:25;18.80;99.90
7204;DHT22;3643;52.460;13.322;2023-07-13T05:00:59;18.90;99.90
7204;DHT22;3643;52.460;13.322;2023-07-13T05:03:28;19.10;99.90
7204;DHT22;3643;52.460;13.322;2023-07-13T05:05:58;19.30;99.90
7204;DHT22;3643;52.460;13.322;2023-07-13T05:08:26;19.60;99.90
7204;DHT22;3643;52.460;13.322;2023-07-13T05:10:55;19.70;99.90
7204;DHT22;3643;52.460;13.322;2023-07-13T05:13:25;20.10;99.90
7204;DHT22;3643;52.460;13.322;2023-07-13T05:15:57;21.50;99.90
7204;DHT22;3643;52.460;13.322;2023-07-13T05:18:26;23.40;99.90
7204;DHT22;3643;52.460;13.322;2023-07-13T05:20:59;25.10;99.90
7204;DHT22;3643;52.460;13.322;2023-07-13T05:23:28;26.60;98.30
7204;DHT22;3643;52.460;13.322;2023-07-13T05:25:56;27.90;96.70
7204;DHT22;3643;52.460;13.322;2023-07-13T05:28:27;28.80;95.30
7204;DHT22;3643;52.460;13.322;2023-07-13T05:30:57;29.70;94.30
7204;DHT22;3643;52.460;13.322;2023-07-13T05:33:26;30.20;93.40
7204;DHT22;3643;52.460;13.322;2023-07-13T05:35:54;31.30;92.20
7204;DHT22;3643;52.460;13.322;2023-07-13T05:38:22;32.10;91.80
7204;DHT22;3643;52.460;13.322;2023-07-13T05:40:51;32.40;90.50
7204;DHT22;3643;52.460;13.322;2023-07-13T05:43:19;31.00;90.30
7204;DHT22;3643;52.460;13.322;2023-07-13T05:45:52;30.50;90.90
7204;DHT22;3643;52.460;13.322;2023-07-13T05:48:20;31.40;90.50
7204;DHT22;3643;52.460;13.322;2023-07-13T05:50:48;30.40;90.60
7204;DHT22;3643;52.460;13.322;2023-07-13T05:53:17;30.20;91.30
7204;DHT22;3643;52.460;13.322;2023-07-13T05:55:46;31.30;90.20
7204;DHT22;3643;52.460;13.322;2023-07-13T05:58:17;30.40;90.90
7204;DHT22;3643;52.460;13.322;2023-07-13T06:00:45;31.00;90.80
7204;DHT22;3643;52.460;13.322;2023-07-13T06:03:15;32.60;88.50
7204;DHT22;3643;52.460;13.322;2023-07-13T06:05:44;31.50;89.00
7204;DHT22;3643;52.460;13.322;2023-07-13T06:08:12;30.30;90.40
7204;DHT22;3643;52.460;13.322;2023-07-13T06:10:40;30.90;90.40
7204;DHT22;3643;52.460;13.322;2023-07-13T06:13:08;31.20;90.50
7204;DHT22;3643;52.460;13.322;2023-07-13T06:15:37;32.90;89.60
7204;DHT22;3643;52.460;13.322;2023-07-13T06:18:05;33.60;86.90
7204;DHT22;3643;52.460;13.322;2023-07-13T06:20:35;32.90;87.20
7204;DHT22;3643;52.460;13.322;2023-07-13T06:23:03;32.90;86.50
7204;DHT22;3643;52.460;13.322;2023-07-13T06:25:32;31.80;87.10
7204;DHT22;3643;52.460;13.322;2023-07-13T06:28:00;31.80;87.50
7204;DHT22;3643;52.460;13.322;2023-07-13T06:30:29;32.50;86.30
7204;DHT22;3643;52.460;13.322;2023-07-13T06:32:58;34.30;85.00
7204;DHT22;3643;52.460;13.322;2023-07-13T06:35:27;35.00;82.80
7204;DHT22;3643;52.460;13.322;2023-07-13T06:37:56;33.80;83.10
7204;DHT22;3643;52.460;13.322;2023-07-13T06:40:25;31.90;86.30
7204;DHT22;3643;52.460;13.322;2023-07-13T06:42:55;32.40;86.40
7204;DHT22;3643;52.460;13.322;2023-07-13T06:45:24;32.80;85.60
7204;DHT22;3643;52.460;13.322;2023-07-13T06:47:52;32.70;85.60
7204;DHT22;3643;52.460;13.322;2023-07-13T06:50:20;33.10;85.20
7204;DHT22;3643;52.460;13.322;2023-07-13T06:52:49;33.80;84.30
7204;DHT22;3643;52.460;13.322;2023-07-13T06:55:18;33.50;84.20
7204;DHT22;3643;52.460;13.322;2023-07-13T06:57:47;34.30;83.50
7204;DHT22;3643;52.460;13.322;2023-07-13T07:00:15;34.80;82.40
7204;DHT22;3643;52.460;13.322;2023-07-13T07:02:44;35.70;82.10
7204;DHT22;3643;52.460;13.322;2023-07-13T07:05:12;35.40;81.80
7204;DHT22;3643;52.460;13.322;2023-07-13T07:07:41;35.70;80.90
7204;DHT22;3643;52.460;13.322;2023-07-13T07:10:09;35.30;80.00
7204;DHT22;3643;52.460;13.322;2023-07-13T07:12:39;34.80;80.00
7204;DHT22;3643;52.460;13.322;2023-07-13T07:15:08;34.20;81.00
7204;DHT22;3643;52.460;13.322;2023-07-13T07:17:36;33.20;83.00
7204;DHT22;3643;52.460;13.322;2023-07-13T07:20:05;33.00;83.00
7204;DHT22;3643;52.460;13.322;2023-07-13T07:22:34;33.10;82.50
7204;DHT22;3643;52.460;13.322;2023-07-13T07:25:02;34.20;80.70
7204;DHT22;3643;52.460;13.322;2023-07-13T07:27:31;34.80;80.30
7204;DHT22;3643;52.460;13.322;2023-07-13T07:30:05;35.60;79.20
7204;DHT22;3643;52.460;13.322;2023-07-13T07:32:37;35.60;78.70
7204;DHT22;3643;52.460;13.322;2023-07-13T07:35:08;35.90;78.70
7204;DHT22;3643;52.460;13.322;2023-07-13T07:37:37;36.40;77.60
7204;DHT22;3643;52.460;13.322;2023-07-13T07:40:08;34.40;79.10
7204;DHT22;3643;52.460;13.322;2023-07-13T07:42:40;33.90;79.20
7204;DHT22;3643;52.460;13.322;2023-07-13T07:45:10;33.20;80.30
7204;DHT22;3643;52.460;13.322;2023-07-13T07:47:39;32.10;81.40
7204;DHT22;3643;52.460;13.322;2023-07-13T07:50:09;31.40;82.40
7204;DHT22;3643;52.460;13.322;2023-07-13T07:52:37;31.20;82.80
7204;DHT22;3643;52.460;13.322;2023-07-13T07:55:08;30.80;83.00
7204;DHT22;3643;52.460;13.322;2023-07-13T07:57:39;30.10;84.60
7204;DHT22;3643;52.460;13.322;2023-07-13T08:00:13;29.40;84.60
7204;DHT22;3643;52.460;13.322;2023-07-13T08:02:44;29.10;85.20
7204;DHT22;3643;52.460;13.322;2023-07-13T08:05:15;28.40;86.60
7204;DHT22;3643;52.460;13.322;2023-07-13T08:07:47;28.20;87.30
7204;DHT22;3643;52.460;13.322;2023-07-13T08:10:16;28.50;86.40
7204;DHT22;3643;52.460;13.322;2023-07-13T08:12:44;28.90;86.10
7204;DHT22;3643;52.460;13.322;2023-07-13T08:15:34;29.50;85.40
7204;DHT22;3643;52.460;13.322;2023-07-13T08:18:02;29.60;84.40
7204;DHT22;3643;52.460;13.322;2023-07-13T08:20:30;29.40;85.70
7204;DHT22;3643;52.460;13.322;2023-07-13T08:22:59;28.60;86.80
7204;DHT22;3643;52.460;13.322;2023-07-13T08:25:27;28.50;87.20
7204;DHT22;3643;52.460;13.322;2023-07-13T08:27:55;28.50;87.30
7204;DHT22;3643;52.460;13.322;2023-07-13T08:30:23;28.70;86.90
7204;DHT22;3643;52.460;13.322;2023-07-13T08:32:53;29.10;86.40
7204;DHT22;3643;52.460;13.322;2023-07-13T08:35:22;29.00;85.80
7204;DHT22;3643;52.460;13.322;2023-07-13T08:37:52;28.10;86.90
7204;DHT22;3643;52.460;13.322;2023-07-13T08:40:24;28.00;87.40
7204;DHT22;3643;52.460;13.322;2023-07-13T08:42:54;27.90;87.10
7204;DHT22;3643;52.460;13.322;2023-07-13T08:45:28;27.60;87.60
7204;DHT22;3643;52.460;13.322;2023-07-13T08:48:02;27.60;88.20
7204;DHT22;3643;52.460;13.322;2023-07-13T08:50:36;27.50;88.10
7204;DHT22;3643;52.460;13.322;2023-07-13T08:53:33;27.70;88.80
7204;DHT22;3643;52.460;13.322;2023-07-13T08:56:03;28.60;86.90
7204;DHT22;3643;52.460;13.322;2023-07-13T08:58:33;29.40;85.30
7204;DHT22;3643;52.460;13.322;2023-07-13T09:01:14;29.90;84.10
7204;DHT22;3643;52.460;13.322;2023-07-13T09:03:55;29.80;83.50
7204;DHT22;3643;52.460;13.322;2023-07-13T09:06:33;29.00;85.10
7204;DHT22;3643;52.460;13.322;2023-07-13T09:09:06;28.20;86.50
7204;DHT22;3643;52.460;13.322;2023-07-13T09:11:45;27.80;87.80
7204;DHT22;3643;52.460;13.322;2023-07-13T09:14:28;27.40;87.40
7204;DHT22;3643;52.460;13.322;2023-07-13T09:17:00;26.50;87.80
7204;DHT22;3643;52.460;13.322;2023-07-13T09:19:33;26.30;88.20
7204;DHT22;3643;52.460;13.322;2023-07-13T09:22:04;26.10;87.60
7204;DHT22;3643;52.460;13.322;2023-07-13T09:24:37;26.20;86.40
7204;DHT22;3643;52.460;13.322;2023-07-13T09:27:14;26.20;86.30
7204;DHT22;3643;52.460;13.322;2023-07-13T09:29:48;26.20;88.00
7204;DHT22;3643;52.460;13.322;2023-07-13T09:32:21;26.10;88.00
7204;DHT22;3643;52.460;13.322;2023-07-13T09:34:53;25.90;88.80
7204;DHT22;3643;52.460;13.322;2023-07-13T09:37:26;25.80;89.50
7204;DHT22;3643;52.460;13.322;2023-07-13T09:39:56;25.30;90.00
7204;DHT22;3643;52.460;13.322;2023-07-13T09:42:26;25.40;90.20
7204;DHT22;3643;52.460;13.322;2023-07-13T09:44:56;25.70;89.70
7204;DHT22;3643;52.460;13.322;2023-07-13T09:47:27;25.80;86.70
7204;DHT22;3643;52.460;13.322;2023-07-13T09:49:59;25.90;85.80
7204;DHT22;3643;52.460;13.322;2023-07-13T09:52:41;25.90;85.60
7204;DHT22;3643;52.460;13.322;2023-07-13T09:55:26;25.30;86.30
7204;DHT22;3643;52.460;13.322;2023-07-13T09:57:56;25.20;87.60
7204;DHT22;3643;52.460;13.322;2023-07-13T10:00:27;24.90;87.80
7204;DHT22;3643;52.460;13.322;2023-07-13T10:03:01;24.60;87.30
7204;DHT22;3643;52.460;13.322;2023-07-13T10:05:43;24.60;88.70
7204;DHT22;3643;52.460;13.322;2023-07-13T10:08:23;25.00;88.70
7204;DHT22;3643;52.460;13.322;2023-07-13T10:10:59;25.40;87.90
7204;DHT22;3643;52.460;13.322;2023-07-13T10:13:31;25.60;87.60
7204;DHT22;3643;52.460;13.322;2023-07-13T10:16:01;25.60;87.80
7204;DHT22;3643;52.460;13.322;2023-07-13T10:18:40;25.50;87.10
7204;DHT22;3643;52.460;13.322;2023-07-13T10:21:14;25.90;88.00
7204;DHT22;3643;52.460;13.322;2023-07-13T10:23:50;25.70;87.80
7204;DHT22;3643;52.460;13.322;2023-07-13T10:26:25;25.90;87.50
7204;DHT22;3643;52.460;13.322;2023-07-13T10:28:56;26.10;87.00
7204;DHT22;3643;52.460;13.322;2023-07-13T10:31:25;26.10;86.00
7204;DHT22;3643;52.460;13.322;2023-07-13T10:33:53;26.30;85.90
7204;DHT22;3643;52.460;13.322;2023-07-13T10:36:34;26.20;85.80
7204;DHT22;3643;52.460;13.322;2023-07-13T10:39:06;26.20;85.70
7204;DHT22;3643;52.460;13.322;2023-07-13T10:41:39;26.20;85.10
7204;DHT22;3643;52.460;13.322;2023-07-13T10:44:17;25.70;86.90
7204;DHT22;3643;52.460;13.322;2023-07-13T10:46:48;25.80;86.80
7204;DHT22;3643;52.460;13.322;2023-07-13T10:49:17;25.40;85.90
7204;DHT22;3643;52.460;13.322;2023-07-13T10:51:47;25.50;85.80
7204;DHT22;3643;52.460;13.322;2023-07-13T10:54:18;25.80;86.20
7204;DHT22;3643;52.460;13.322;2023-07-13T10:56:51;25.90;84.30
7204;DHT22;3643;52.460;13.322;2023-07-13T10:59:24;25.70;84.80
7204;DHT22;3643;52.460;13.322;2023-07-13T11:01:57;25.80;84.70
7204;DHT22;3643;52.460;13.322;2023-07-13T11:04:27;25.90;84.70
7204;DHT22;3643;52.460;13.322;2023-07-13T11:07:00;25.90;84.20
7204;DHT22;3643;52.460;13.322;2023-07-13T11:09:38;26.40;84.10
7204;DHT22;3643;52.460;13.322;2023-07-13T11:12:18;26.30;82.10
7204;DHT22;3643;52.460;13.322;2023-07-13T11:15:06;26.20;80.10
7204;DHT22;3643;52.460;13.322;2023-07-13T11:17:47;26.20;80.00
7204;DHT22;3643;52.460;13.322;2023-07-13T11:20:37;26.30;81.90
7204;DHT22;3643;52.460;13.322;2023-07-13T11:23:31;26.50;82.00
7204;DHT22;3643;52.460;13.322;2023-07-13T11:26:00;26.30;82.50
7204;DHT22;3643;52.460;13.322;2023-07-13T11:28:31;26.20;83.80
7204;DHT22;3643;52.460;13.322;2023-07-13T11:31:03;26.20;83.30
7204;DHT22;3643;52.460;13.322;2023-07-13T11:33:52;26.20;83.90
7204;DHT22;3643;52.460;13.322;2023-07-13T11:36:23;26.30;84.50
7204;DHT22;3643;52.460;13.322;2023-07-13T11:39:00;26.20;85.00
7204;DHT22;3643;52.460;13.322;2023-07-13T11:41:31;26.30;85.20
7204;DHT22;3643;52.460;13.322;2023-07-13T11:44:06;27.70;86.60
7204;DHT22;3643;52.460;13.322;2023-07-13T11:46:35;26.20;82.70
7204;DHT22;3643;52.460;13.322;2023-07-13T11:49:05;26.10;83.20
7204;DHT22;3643;52.460;13.322;2023-07-13T11:51:35;26.10;83.20
7204;DHT22;3643;52.460;13.322;2023-07-13T11:56:56;26.10;83.90
7204;DHT22;3643;52.460;13.322;2023-07-13T11:59:28;26.20;83.10
7204;DHT22;3643;52.460;13.322;2023-07-13T12:01:57;26.20;82.00
7204;DHT22;3643;52.460;13.322;2023-07-13T12:04:27;26.20;81.70
7204;DHT22;3643;52.460;13.322;2023-07-13T12:06:57;26.20;81.70
7204;DHT22;3643;52.460;13.322;2023-07-13T12:09:28;26.30;82.60
7204;DHT22;3643;52.460;13.322;2023-07-13T12:11:57;26.30;83.00
7204;DHT22;3643;52.460;13.322;2023-07-13T12:14:28;26.30;83.50
7204;DHT22;3643;52.460;13.322;2023-07-13T12:16:56;24.70;81.70
7204;DHT22;3643;52.460;13.322;2023-07-13T12:19:26;25.90;83.20
7204;DHT22;3643;52.460;13.322;2023-07-13T12:21:56;26.10;82.90
7204;DHT22;3643;52.460;13.322;2023-07-13T12:24:27;26.10;82.60
7204;DHT22;3643;52.460;13.322;2023-07-13T12:27:02;26.10;82.40
7204;DHT22;3643;52.460;13.322;2023-07-13T12:29:32;26.10;83.30
7204;DHT22;3643;52.460;13.322;2023-07-13T12:32:01;24.90;82.90
7204;DHT22;3643;52.460;13.322;2023-07-13T12:34:29;26.00;83.60
7204;DHT22;3643;52.460;13.322;2023-07-13T12:36:59;25.90;83.80
7204;DHT22;3643;52.460;13.322;2023-07-13T12:39:34;25.80;84.70
7204;DHT22;3643;52.460;13.322;2023-07-13T12:42:17;25.80;84.90
7204;DHT22;3643;52.460;13.322;2023-07-13T12:44:47;25.90;84.40
7204;DHT22;3643;52.460;13.322;2023-07-13T12:47:16;25.90;83.00
7204;DHT22;3643;52.460;13.322;2023-07-13T12:49:49;26.10;83.90
7204;DHT22;3643;52.460;13.322;2023-07-13T12:52:22;26.80;84.40
7204;DHT22;3643;52.460;13.322;2023-07-13T12:54:56;26.50;83.30
7204;DHT22;3643;52.460;13.322;2023-07-13T12:57:39;26.60;82.60
7204;DHT22;3643;52.460;13.322;2023-07-13T13:00:22;26.50;81.50
7204;DHT22;3643;52.460;13.322;2023-07-13T13:02:53;26.40;82.60
7204;DHT22;3643;52.460;13.322;2023-07-13T13:05:41;26.10;82.30
7204;DHT22;3643;52.460;13.322;2023-07-13T13:08:12;26.20;82.40
7204;DHT22;3643;52.460;13.322;2023-07-13T13:10:42;26.20;82.70
7204;DHT22;3643;52.460;13.322;2023-07-13T13:13:12;25.90;84.10
7204;DHT22;3643;52.460;13.322;2023-07-13T13:15:41;25.90;83.60
7204;DHT22;3643;52.460;13.322;2023-07-13T13:18:16;26.00;83.50
7204;DHT22;3643;52.460;13.322;2023-07-13T13:20:45;26.10;84.10
7204;DHT22;3643;52.460;13.322;2023-07-13T13:23:14;26.10;83.50
7204;DHT22;3643;52.460;13.322;2023-07-13T13:25:47;26.00;84.10
7204;DHT22;3643;52.460;13.322;2023-07-13T13:28:18;26.20;83.00
7204;DHT22;3643;52.460;13.322;2023-07-13T13:30:50;26.30;83.30
7204;DHT22;3643;52.460;13.322;2023-07-13T13:33:20;26.70;82.90
7204;DHT22;3643;52.460;13.322;2023-07-13T13:35:50;26.70;82.20
7204;DHT22;3643;52.460;13.322;2023-07-13T13:38:22;26.70;82.60
7204;DHT22;3643;52.460;13.322;2023-07-13T13:40:53;26.70;81.90
7204;DHT22;3643;52.460;13.322;2023-07-13T13:43:23;26.80;81.60
7204;DHT22;3643;52.460;13.322;2023-07-13T13:45:57;27.00;82.20
7204;DHT22;3643;52.460;13.322;2023-07-13T13:48:30;27.00;81.80
7204;DHT22;3643;52.460;13.322;2023-07-13T13:51:00;26.90;82.20
7204;DHT22;3643;52.460;13.322;2023-07-13T13:53:28;26.80;81.70
7204;DHT22;3643;52.460;13.322;2023-07-13T13:55:58;26.90;82.00
7204;DHT22;3643;52.460;13.322;2023-07-13T13:58:27;27.00;81.80
7204;DHT22;3643;52.460;13.322;2023-07-13T14:00:56;27.00;81.80
7204;DHT22;3643;52.460;13.322;2023-07-13T14:03:26;26.80;82.60
7204;DHT22;3643;52.460;13.322;2023-07-13T14:05:55;26.90;81.90
7204;DHT22;3643;52.460;13.322;2023-07-13T14:08:24;27.00;82.20
7204;DHT22;3643;52.460;13.322;2023-07-13T14:10:55;27.00;82.00
7204;DHT22;3643;52.460;13.322;2023-07-13T14:13:36;26.80;81.50
7204;DHT22;3643;52.460;13.322;2023-07-13T14:16:11;26.70;80.20
7204;DHT22;3643;52.460;13.322;2023-07-13T14:18:40;26.50;79.80
7204;DHT22;3643;52.460;13.322;2023-07-13T14:21:12;26.30;79.30
7204;DHT22;3643;52.460;13.322;2023-07-13T14:23:43;26.40;79.70
7204;DHT22;3643;52.460;13.322;2023-07-13T14:26:12;26.50;81.20
7204;DHT22;3643;52.460;13.322;2023-07-13T14:28:44;26.40;81.70
7204;DHT22;3643;52.460;13.322;2023-07-13T14:31:14;26.30;81.80
7204;DHT22;3643;52.460;13.322;2023-07-13T14:33:44;26.20;81.70
7204;DHT22;3643;52.460;13.322;2023-07-13T14:36:22;26.20;82.10
7204;DHT22;3643;52.460;13.322;2023-07-13T14:38:51;26.20;81.30
7204;DHT22;3643;52.460;13.322;2023-07-13T14:41:20;26.30;80.90
7204;DHT22;3643;52.460;13.322;2023-07-13T14:43:50;26.40;80.80
7204;DHT22;3643;52.460;13.322;2023-07-13T14:46:29;26.30;80.90
7204;DHT22;3643;52.460;13.322;2023-07-13T14:49:02;26.50;81.50
7204;DHT22;3643;52.460;13.322;2023-07-13T14:51:31;26.50;81.50
7204;DHT22;3643;52.460;13.322;2023-07-13T14:54:03;26.60;81.60
7204;DHT22;3643;52.460;13.322;2023-07-13T14:56:32;26.50;80.70
7204;DHT22;3643;52.460;13.322;2023-07-13T14:59:01;26.40;79.90
7204;DHT22;3643;52.460;13.322;2023-07-13T15:01:30;26.40;79.60
7204;DHT22;3643;52.460;13.322;2023-07-13T15:03:59;26.30;79.10
7204;DHT22;3643;52.460;13.322;2023-07-13T15:06:27;26.20;79.20
7204;DHT22;3643;52.460;13.322;2023-07-13T15:08:56;26.40;80.30
7204;DHT22;3643;52.460;13.322;2023-07-13T15:11:24;26.50;80.60
7204;DHT22;3643;52.460;13.322;2023-07-13T15:13:53;26.60;80.10
7204;DHT22;3643;52.460;13.322;2023-07-13T15:16:24;26.50;79.30
7204;DHT22;3643;52.460;13.322;2023-07-13T15:18:53;26.40;78.90
7204;DHT22;3643;52.460;13.322;2023-07-13T15:21:23;26.20;79.80
7204;DHT22;3643;52.460;13.322;2023-07-13T15:23:55;26.20;79.90
7204;DHT22;3643;52.460;13.322;2023-07-13T15:26:23;26.20;80.50
7204;DHT22;3643;52.460;13.322;2023-07-13T15:28:51;26.20;80.70
7204;DHT22;3643;52.460;13.322;2023-07-13T15:31:22;26.30;80.10
7204;DHT22;3643;52.460;13.322;2023-07-13T15:33:53;26.30;80.10
7204;DHT22;3643;52.460;13.322;2023-07-13T15:36:22;26.20;79.80
7204;DHT22;3643;52.460;13.322;2023-07-13T15:38:53;26.20;80.40
7204;DHT22;3643;52.460;13.322;2023-07-13T15:41:26;26.30;81.00
7204;DHT22;3643;52.460;13.322;2023-07-13T15:43:56;26.20;80.20
7204;DHT22;3643;52.460;13.322;2023-07-13T15:46:26;26.30;80.60
7204;DHT22;3643;52.460;13.322;2023-07-13T15:48:57;26.40;80.30
7204;DHT22;3643;52.460;13.322;2023-07-13T15:51:27;26.30;80.50
7204;DHT22;3643;52.460;13.322;2023-07-13T15:53:58;26.20;81.20
7204;DHT22;3643;52.460;13.322;2023-07-13T15:56:35;26.20;81.80
7204;DHT22;3643;52.460;13.322;2023-07-13T15:59:03;26.10;80.90
7204;DHT22;3643;52.460;13.322;2023-07-13T16:01:32;25.90;81.00
7204;DHT22;3643;52.460;13.322;2023-07-13T16:04:02;25.90;80.90
7204;DHT22;3643;52.460;13.322;2023-07-13T16:06:34;25.90;81.00
7204;DHT22;3643;52.460;13.322;2023-07-13T16:09:05;25.90;81.00
7204;DHT22;3643;52.460;13.322;2023-07-13T16:11:36;25.80;81.10